createdAt,value
2019-03-26T00:00:33.785Z,8.40
2019-03-26T00:03:03.207Z,6.80
2019-03-26T00:05:32.645Z,6.53
2019-03-26T00:08:02.078Z,7.20
2019-03-26T00:10:31.517Z,7.83
2019-03-26T00:13:00.943Z,7.30
2019-03-26T00:15:30.379Z,6.93
2019-03-26T00:17:59.819Z,6.93
2019-03-26T00:20:29.253Z,7.80
2019-03-26T00:22:58.754Z,7.67
2019-03-26T00:25:28.192Z,6.00
2019-03-26T00:27:57.627Z,6.97
2019-03-26T00:30:27.064Z,7.33
2019-03-26T00:32:56.483Z,6.17
2019-03-26T00:35:25.949Z,7.27
2019-03-26T00:37:55.362Z,6.57
2019-03-26T00:40:24.799Z,6.07
2019-03-26T00:42:54.223Z,6.57
2019-03-26T00:45:23.660Z,5.30
2019-03-26T00:47:53.087Z,6.60
2019-03-26T00:50:22.531Z,7.07
2019-03-26T00:52:51.969Z,6.77
2019-03-26T00:55:22.985Z,7.87
2019-03-26T00:57:52.799Z,8.30
2019-03-26T01:00:36.030Z,6.40
2019-03-26T01:03:06.001Z,6.80
2019-03-26T01:05:35.443Z,5.83
2019-03-26T01:08:04.938Z,5.67
2019-03-26T01:10:34.431Z,6.30
2019-03-26T01:13:04.278Z,6.13
2019-03-26T01:15:33.988Z,6.63
2019-03-26T01:18:03.415Z,6.17
2019-03-26T01:20:32.859Z,5.70
2019-03-26T01:23:02.295Z,6.43
2019-03-26T01:25:31.740Z,5.00
2019-03-26T01:28:01.180Z,5.90
2019-03-26T01:30:30.615Z,5.87
2019-03-26T01:33:00.067Z,5.43
2019-03-26T01:35:29.503Z,5.30
2019-03-26T01:37:58.941Z,5.73
2019-03-26T01:40:28.417Z,6.03
2019-03-26T01:42:57.822Z,6.00
2019-03-26T01:45:27.245Z,5.77
2019-03-26T01:47:56.675Z,6.70
2019-03-26T01:50:26.105Z,6.00
2019-03-26T01:52:55.539Z,6.47
2019-03-26T01:55:25.036Z,5.83
2019-03-26T01:57:54.472Z,7.00
2019-03-26T02:00:23.967Z,5.97
2019-03-26T02:02:53.409Z,7.07
2019-03-26T02:05:22.837Z,7.63
2019-03-26T02:07:52.262Z,8.03
2019-03-26T02:10:21.692Z,7.27
2019-03-26T02:12:51.128Z,6.47
2019-03-26T02:15:30.048Z,8.87
2019-03-26T02:18:00.132Z,7.73
2019-03-26T02:20:29.622Z,6.43
2019-03-26T02:22:59.128Z,7.37
2019-03-26T02:25:28.557Z,7.20
2019-03-26T02:27:58.167Z,6.80
2019-03-26T02:30:27.578Z,7.97
2019-03-26T02:32:57.014Z,6.77
2019-03-26T02:35:26.434Z,8.53
2019-03-26T02:37:55.944Z,7.67
2019-03-26T02:40:25.370Z,8.63
2019-03-26T02:42:54.820Z,9.57
2019-03-26T02:45:24.310Z,7.37
2019-03-26T02:47:53.749Z,7.87
2019-03-26T02:50:23.182Z,7.33
2019-03-26T02:52:52.616Z,9.30
2019-03-26T02:55:22.036Z,7.53
2019-03-26T02:57:51.701Z,7.13
2019-03-26T03:00:21.366Z,8.03
2019-03-26T03:02:50.800Z,10.23
2019-03-26T03:05:34.238Z,8.90
2019-03-26T03:07:51.414Z,7.93
2019-03-26T03:10:21.241Z,9.47
2019-03-26T03:12:50.680Z,8.33
2019-03-26T03:15:20.194Z,7.90
2019-03-26T03:17:49.961Z,7.93
2019-03-26T03:20:19.574Z,8.80
2019-03-26T03:22:48.991Z,8.57
2019-03-26T03:25:18.407Z,8.37
2019-03-26T03:27:47.847Z,9.53
2019-03-26T03:30:17.888Z,8.50
2019-03-26T03:32:47.346Z,8.47
2019-03-26T03:35:16.834Z,8.40
2019-03-26T03:37:46.273Z,9.00
2019-03-26T03:40:15.844Z,9.13
2019-03-26T03:42:45.421Z,10.70
2019-03-26T03:45:18.297Z,10.00
2019-03-26T03:47:48.379Z,10.23
2019-03-26T03:50:17.898Z,12.70
2019-03-26T03:52:48.056Z,13.93
2019-03-26T03:55:17.759Z,14.60
2019-03-26T03:57:52.829Z,9.93
2019-03-26T04:00:40.472Z,10.60
2019-03-26T04:03:10.426Z,11.63
2019-03-26T04:05:40.097Z,10.90
2019-03-26T04:08:09.550Z,12.13
2019-03-26T04:10:38.982Z,12.27
2019-03-26T04:13:08.711Z,16.93
2019-03-26T04:15:38.205Z,12.67
2019-03-26T04:18:07.708Z,11.13
2019-03-26T04:20:37.144Z,9.93
2019-03-26T04:23:07.024Z,11.43
2019-03-26T04:25:36.736Z,11.27
2019-03-26T04:28:06.174Z,12.83
2019-03-26T04:30:35.752Z,9.67
2019-03-26T04:33:05.315Z,10.20
2019-03-26T04:35:34.768Z,13.10
2019-03-26T04:38:04.265Z,11.40
2019-03-26T04:40:33.706Z,10.27
2019-03-26T04:43:03.141Z,13.23
2019-03-26T04:45:32.584Z,13.73
2019-03-26T04:48:02.027Z,12.40
2019-03-26T04:50:31.719Z,11.83
2019-03-26T04:53:01.226Z,12.43
2019-03-26T04:55:30.663Z,15.23
2019-03-26T04:58:00.098Z,11.47
2019-03-26T05:00:29.540Z,12.73
2019-03-26T05:02:58.980Z,13.53
2019-03-26T05:05:28.497Z,11.43
2019-03-26T05:07:58.271Z,10.73
2019-03-26T05:10:27.718Z,13.40
2019-03-26T05:12:57.152Z,13.07
2019-03-26T05:15:26.598Z,13.40
2019-03-26T05:17:56.820Z,12.07
2019-03-26T05:20:26.539Z,11.33
2019-03-26T05:22:55.975Z,12.70
2019-03-26T05:25:25.428Z,12.13
2019-03-26T05:27:54.863Z,11.33
2019-03-26T05:30:24.319Z,11.97
2019-03-26T05:32:53.762Z,10.97
2019-03-26T05:35:23.208Z,13.27
2019-03-26T05:37:52.650Z,13.50
2019-03-26T05:40:22.099Z,13.47
2019-03-26T05:42:51.529Z,12.23
2019-03-26T05:45:20.979Z,11.40
2019-03-26T05:47:50.415Z,13.00
2019-03-26T05:50:19.879Z,12.73
2019-03-26T05:52:49.324Z,13.73
2019-03-26T05:55:18.767Z,13.50
2019-03-26T05:57:48.210Z,13.73
2019-03-26T06:00:19.512Z,12.97
2019-03-26T06:02:48.951Z,15.77
2019-03-26T06:05:18.392Z,14.47
2019-03-26T06:07:47.835Z,12.07
2019-03-26T06:10:17.475Z,15.03
2019-03-26T06:12:50.072Z,15.20
2019-03-26T06:15:18.095Z,11.67
2019-03-26T06:17:47.525Z,13.03
2019-03-26T06:20:17.039Z,12.93
2019-03-26T06:22:46.543Z,17.87
2019-03-26T06:25:15.998Z,13.97
2019-03-26T06:27:45.421Z,14.73
2019-03-26T06:30:15.269Z,12.00
2019-03-26T06:32:44.703Z,13.40
2019-03-26T06:35:14.279Z,12.40
2019-03-26T06:37:43.719Z,13.40
2019-03-26T06:40:13.969Z,11.97
2019-03-26T06:42:43.403Z,12.63
2019-03-26T06:45:14.128Z,14.03
2019-03-26T06:47:43.565Z,12.83
2019-03-26T06:50:13.722Z,12.00
2019-03-26T06:52:43.154Z,14.43
2019-03-26T06:55:13.044Z,11.27
2019-03-26T06:57:42.485Z,15.60
2019-03-26T07:00:15.539Z,12.43
2019-03-26T07:02:45.399Z,11.27
2019-03-26T07:05:15.106Z,11.20
2019-03-26T07:07:44.610Z,12.90
2019-03-26T07:10:16.314Z,13.27
2019-03-26T07:12:45.767Z,15.10
2019-03-26T07:15:15.374Z,14.90
2019-03-26T07:17:44.820Z,12.73
2019-03-26T07:20:15.420Z,13.87
2019-03-26T07:22:44.888Z,13.90
2019-03-26T07:25:14.338Z,14.97
2019-03-26T07:27:43.782Z,12.37
2019-03-26T07:30:22.479Z,13.60
2019-03-26T07:32:51.914Z,12.07
2019-03-26T07:35:21.693Z,12.97
2019-03-26T07:37:51.136Z,14.63
2019-03-26T07:40:20.595Z,15.10
2019-03-26T07:42:50.030Z,13.37
2019-03-26T07:45:19.472Z,12.93
2019-03-26T07:47:48.978Z,14.27
2019-03-26T07:50:18.514Z,12.97
2019-03-26T07:52:47.961Z,13.53
2019-03-26T07:55:17.403Z,12.13
2019-03-26T07:57:46.852Z,12.27
2019-03-26T08:00:18.497Z,13.23
2019-03-26T08:02:47.939Z,12.87
2019-03-26T08:05:29.280Z,13.30
2019-03-26T08:07:58.357Z,12.63
2019-03-26T08:10:19.716Z,12.83
2019-03-26T08:12:49.189Z,13.93
2019-03-26T08:15:20.266Z,15.70
2019-03-26T08:17:49.790Z,13.57
2019-03-26T08:20:19.310Z,14.63
2019-03-26T08:22:48.756Z,11.83
2019-03-26T08:25:18.198Z,12.53
2019-03-26T08:27:47.650Z,13.40
2019-03-26T08:30:17.148Z,16.03
2019-03-26T08:32:46.614Z,13.97
2019-03-26T08:35:16.051Z,11.27
2019-03-26T08:37:45.494Z,13.90
2019-03-26T08:40:15.411Z,14.47
2019-03-26T08:42:45.123Z,11.80
2019-03-26T08:45:15.297Z,16.50
2019-03-26T08:47:44.753Z,12.63
2019-03-26T08:50:14.394Z,13.10
2019-03-26T08:52:43.849Z,12.77
2019-03-26T08:55:14.323Z,13.30
2019-03-26T08:57:43.770Z,12.27
2019-03-26T09:00:14.113Z,13.00
2019-03-26T09:02:45.161Z,12.60
2019-03-26T09:05:15.075Z,11.93
2019-03-26T09:07:44.559Z,10.73
2019-03-26T09:10:15.605Z,11.77
2019-03-26T09:12:45.183Z,10.63
2019-03-26T09:15:14.963Z,16.73
2019-03-26T09:17:44.931Z,13.70
2019-03-26T09:20:15.130Z,13.73
2019-03-26T09:22:44.574Z,11.20
2019-03-26T09:25:14.645Z,10.23
2019-03-26T09:27:44.105Z,11.17
2019-03-26T09:30:14.168Z,10.33
2019-03-26T09:32:44.065Z,11.07
2019-03-26T09:35:13.943Z,12.90
2019-03-26T09:37:43.392Z,12.80
2019-03-26T09:40:13.374Z,13.70
2019-03-26T09:42:42.825Z,13.33
2019-03-26T09:45:13.958Z,12.73
2019-03-26T09:47:43.407Z,14.87
2019-03-26T09:50:16.524Z,13.80
2019-03-26T09:52:45.970Z,13.00
2019-03-26T09:55:15.484Z,12.87
2019-03-26T09:57:44.931Z,12.87
2019-03-26T10:00:14.440Z,14.43
2019-03-26T10:02:43.888Z,12.03
2019-03-26T10:05:14.158Z,12.70
2019-03-26T10:07:43.615Z,13.10
2019-03-26T10:10:14.054Z,11.87
2019-03-26T10:12:43.746Z,12.37
2019-03-26T10:15:13.605Z,10.33
2019-03-26T10:17:43.058Z,11.43
2019-03-26T10:20:12.755Z,9.73
2019-03-26T10:22:42.206Z,9.67
2019-03-26T10:25:12.377Z,13.27
2019-03-26T10:27:41.835Z,14.40
2019-03-26T10:30:14.577Z,11.43
2019-03-26T10:32:44.044Z,10.80
2019-03-26T10:35:13.746Z,10.97
2019-03-26T10:37:43.197Z,13.93
2019-03-26T10:40:17.355Z,10.33
2019-03-26T10:42:47.053Z,9.73
2019-03-26T10:45:16.571Z,10.33
2019-03-26T10:47:46.032Z,8.70
2019-03-26T10:50:15.463Z,7.27
2019-03-26T10:52:44.902Z,9.57
2019-03-26T10:55:14.351Z,9.20
2019-03-26T10:57:43.781Z,9.23
2019-03-26T11:00:13.776Z,10.40
2019-03-26T11:02:43.202Z,9.83
2019-03-26T11:05:13.002Z,10.30
2019-03-26T11:07:42.936Z,9.77
2019-03-26T11:10:13.150Z,11.20
2019-03-26T11:12:42.562Z,17.10
2019-03-26T11:15:13.248Z,10.70
2019-03-26T11:17:42.693Z,11.23
2019-03-26T11:20:12.952Z,8.00
2019-03-26T11:22:42.401Z,7.90
2019-03-26T11:25:12.560Z,9.63
2019-03-26T11:27:42.075Z,6.87
2019-03-26T11:30:11.779Z,7.90
2019-03-26T11:32:41.272Z,11.37
2019-03-26T11:35:11.472Z,8.60
2019-03-26T11:37:40.919Z,9.30
2019-03-26T11:40:10.849Z,9.10
2019-03-26T11:42:40.284Z,8.83
2019-03-26T11:45:10.744Z,9.77
2019-03-26T11:47:40.927Z,7.53
2019-03-26T11:50:11.821Z,9.80
2019-03-26T11:52:41.594Z,6.37
2019-03-26T11:55:12.044Z,5.13
2019-03-26T11:57:41.763Z,6.37
2019-03-26T12:00:15.486Z,5.73
2019-03-26T12:02:44.915Z,7.40
2019-03-26T12:05:14.506Z,6.57
2019-03-26T12:07:43.958Z,5.43
2019-03-26T12:10:14.049Z,7.70
2019-03-26T12:12:43.488Z,8.13
2019-03-26T12:15:13.567Z,6.73
2019-03-26T12:17:43.005Z,7.17
2019-03-26T12:20:12.522Z,6.37
2019-03-26T12:22:41.964Z,6.00
2019-03-26T12:25:12.073Z,5.63
2019-03-26T12:27:41.511Z,6.90
2019-03-26T12:30:11.115Z,8.07
2019-03-26T12:32:41.224Z,6.93
2019-03-26T12:35:15.598Z,8.93
2019-03-26T12:37:45.145Z,7.63
2019-03-26T12:40:14.680Z,7.93
2019-03-26T12:42:44.106Z,7.60
2019-03-26T12:45:15.202Z,6.63
2019-03-26T12:47:44.626Z,6.73
2019-03-26T12:50:14.072Z,4.77
2019-03-26T12:52:43.504Z,6.97
2019-03-26T12:55:12.958Z,6.50
2019-03-26T12:57:42.398Z,5.27
2019-03-26T13:00:12.092Z,8.30
2019-03-26T13:02:41.521Z,3.60
2019-03-26T13:05:11.542Z,3.90
2019-03-26T13:07:40.982Z,7.60
2019-03-26T13:10:13.981Z,4.37
2019-03-26T13:12:41.727Z,5.23
2019-03-26T13:15:11.239Z,5.17
2019-03-26T13:17:40.697Z,6.07
2019-03-26T13:20:10.372Z,4.80
2019-03-26T13:22:39.805Z,6.47
2019-03-26T13:25:10.390Z,6.10
2019-03-26T13:27:40.291Z,6.47
2019-03-26T13:30:17.799Z,4.43
2019-03-26T13:33:02.000Z,6.90
2019-03-26T13:35:42.690Z,4.27
2019-03-26T13:38:17.777Z,6.27
2019-03-26T13:40:59.789Z,7.60
2019-03-26T13:43:32.694Z,4.70
2019-03-26T13:46:09.993Z,4.07
2019-03-26T13:48:48.561Z,4.60
2019-03-26T13:51:19.108Z,4.37
2019-03-26T13:53:52.745Z,4.70
2019-03-26T13:56:28.941Z,3.23
2019-03-26T13:59:02.503Z,5.87
2019-03-26T14:01:38.027Z,3.77
2019-03-26T14:04:13.423Z,4.50
2019-03-26T14:06:45.962Z,5.07
2019-03-26T14:09:15.961Z,5.30
2019-03-26T14:11:45.435Z,3.07
2019-03-26T14:14:14.878Z,4.30
2019-03-26T14:16:44.328Z,4.63
2019-03-26T14:19:13.771Z,3.03
2019-03-26T14:21:43.226Z,4.90
2019-03-26T14:24:13.511Z,4.67
2019-03-26T14:26:43.006Z,8.20
2019-03-26T14:29:12.437Z,4.73
2019-03-26T14:31:41.887Z,5.53
2019-03-26T14:34:11.342Z,3.53
2019-03-26T14:36:41.116Z,3.67
2019-03-26T14:39:11.900Z,4.20
2019-03-26T14:41:41.446Z,3.30
2019-03-26T14:44:10.892Z,6.13
2019-03-26T14:46:40.348Z,7.10
2019-03-26T14:49:09.789Z,6.00
2019-03-26T14:51:39.241Z,8.97
2019-03-26T14:54:08.696Z,7.67
2019-03-26T14:56:38.625Z,5.17
2019-03-26T14:59:08.067Z,7.77
2019-03-26T15:01:37.536Z,4.23
2019-03-26T15:04:06.980Z,3.10
2019-03-26T15:06:36.435Z,6.17
2019-03-26T15:09:08.495Z,4.43
2019-03-26T15:11:37.999Z,8.40
2019-03-26T15:14:07.463Z,4.90
2019-03-26T15:16:36.909Z,6.27
2019-03-26T15:19:06.364Z,6.57
2019-03-26T15:21:36.179Z,4.67
2019-03-26T15:24:05.642Z,6.07
2019-03-26T15:26:35.090Z,5.67
2019-03-26T15:29:09.490Z,6.53
2019-03-26T15:31:39.947Z,6.03
2019-03-26T15:34:11.867Z,6.50
2019-03-26T15:36:41.864Z,8.83
2019-03-26T15:39:11.673Z,5.97
2019-03-26T15:41:43.890Z,8.63
2019-03-26T15:44:20.907Z,4.67
2019-03-26T15:46:53.577Z,6.13
2019-03-26T15:49:30.406Z,9.57
2019-03-26T15:51:59.477Z,6.63
2019-03-26T15:54:33.556Z,6.37
2019-03-26T15:57:06.708Z,6.73
2019-03-26T15:59:40.959Z,7.67
2019-03-26T16:02:15.376Z,9.20
2019-03-26T16:04:49.717Z,7.93
2019-03-26T16:07:22.280Z,8.10
2019-03-26T16:09:58.237Z,10.53
2019-03-26T16:12:40.593Z,8.47
2019-03-26T16:15:04.908Z,8.57
2019-03-26T16:17:38.165Z,8.87
2019-03-26T16:20:10.592Z,10.33
2019-03-26T16:22:42.756Z,8.57
2019-03-26T16:25:26.816Z,8.83
2019-03-26T16:27:59.732Z,9.23
2019-03-26T16:30:34.702Z,9.70
2019-03-26T16:33:06.995Z,9.60
2019-03-26T16:35:40.426Z,7.63
2019-03-26T16:38:14.022Z,15.80
2019-03-26T16:40:48.639Z,10.73
2019-03-26T16:43:22.035Z,10.07
2019-03-26T16:45:54.797Z,11.27
2019-03-26T16:48:27.939Z,13.17
2019-03-26T16:51:01.254Z,11.90
2019-03-26T16:53:36.166Z,13.60
2019-03-26T16:56:09.126Z,13.87
2019-03-26T16:58:42.705Z,14.43
2019-03-26T17:01:16.998Z,13.13
2019-03-26T17:03:50.255Z,12.93
2019-03-26T17:06:23.612Z,12.20
2019-03-26T17:08:58.642Z,12.80
2019-03-26T17:11:31.055Z,13.93
2019-03-26T17:14:03.645Z,11.97
2019-03-26T17:16:36.368Z,12.67
2019-03-26T17:19:08.704Z,11.57
2019-03-26T17:21:41.787Z,12.57
2019-03-26T17:24:14.031Z,11.50
2019-03-26T17:26:47.053Z,13.63
2019-03-26T17:29:19.032Z,13.33
2019-03-26T17:31:52.088Z,10.77
2019-03-26T17:34:23.738Z,13.00
2019-03-26T17:36:56.424Z,15.33
2019-03-26T17:39:31.634Z,13.20
2019-03-26T17:42:16.561Z,12.63
2019-03-26T17:44:37.827Z,14.30
2019-03-26T17:47:11.681Z,11.43
2019-03-26T17:49:45.710Z,13.13
2019-03-26T17:52:18.187Z,12.10
2019-03-26T17:54:49.071Z,11.87
2019-03-26T17:57:18.555Z,11.77
2019-03-26T17:59:48.074Z,11.47
2019-03-26T18:02:17.507Z,11.63
2019-03-26T18:04:46.967Z,11.30
2019-03-26T18:07:16.411Z,9.57
2019-03-26T18:09:45.839Z,10.13
2019-03-26T18:12:15.287Z,12.80
2019-03-26T18:14:44.727Z,12.57
2019-03-26T18:17:14.174Z,10.03
2019-03-26T18:19:43.612Z,9.27
2019-03-26T18:22:13.070Z,12.53
2019-03-26T18:24:42.517Z,10.50
2019-03-26T18:27:11.969Z,13.33
2019-03-26T18:29:41.405Z,10.97
2019-03-26T18:32:10.850Z,11.57
2019-03-26T18:34:40.286Z,7.80
2019-03-26T18:37:09.739Z,12.00
2019-03-26T18:39:39.180Z,12.47
2019-03-26T18:42:08.619Z,8.70
2019-03-26T18:44:38.063Z,10.93
2019-03-26T18:47:07.513Z,9.93
2019-03-26T18:49:36.951Z,10.47
2019-03-26T18:52:06.408Z,9.83
2019-03-26T18:54:35.848Z,11.27
2019-03-26T18:57:05.388Z,13.57
2019-03-26T18:59:35.103Z,10.50
2019-03-26T19:02:04.540Z,11.27
2019-03-26T19:04:33.977Z,10.17
2019-03-26T19:07:03.424Z,11.43
2019-03-26T19:09:32.869Z,13.17
2019-03-26T19:12:02.328Z,11.83
2019-03-26T19:14:31.767Z,12.57
2019-03-26T19:17:01.216Z,10.53
2019-03-26T19:19:30.661Z,13.63
2019-03-26T19:22:00.106Z,9.23
2019-03-26T19:24:29.539Z,12.63
2019-03-26T19:26:58.990Z,10.30
2019-03-26T19:29:28.435Z,9.67
2019-03-26T19:31:58.172Z,14.10
2019-03-26T19:34:27.688Z,13.03
2019-03-26T19:36:57.139Z,9.27
2019-03-26T19:39:26.622Z,12.43
2019-03-26T19:41:56.094Z,11.90
2019-03-26T19:44:25.559Z,11.13
2019-03-26T19:46:55.055Z,8.53
2019-03-26T19:49:24.489Z,10.77
2019-03-26T19:51:53.945Z,12.23
2019-03-26T19:54:23.396Z,10.33
2019-03-26T19:56:52.839Z,14.00
2019-03-26T19:59:22.281Z,10.67
2019-03-26T20:01:52.046Z,10.43
2019-03-26T20:04:21.485Z,10.87
2019-03-26T20:06:50.935Z,13.40
2019-03-26T20:09:20.367Z,12.13
2019-03-26T20:11:49.833Z,12.87
2019-03-26T20:14:19.277Z,12.17
2019-03-26T20:16:48.700Z,12.43
2019-03-26T20:19:18.150Z,11.67
2019-03-26T20:21:49.826Z,12.70
2019-03-26T20:24:18.813Z,11.90
2019-03-26T20:26:48.277Z,15.00
2019-03-26T20:29:17.771Z,13.13
2019-03-26T20:31:47.215Z,10.70
2019-03-26T20:34:16.968Z,11.60
2019-03-26T20:36:46.401Z,17.87
2019-03-26T20:39:15.852Z,10.97
2019-03-26T20:41:45.283Z,9.37
2019-03-26T20:44:14.751Z,11.67
2019-03-26T20:46:44.183Z,10.50
2019-03-26T20:49:13.744Z,12.00
2019-03-26T20:51:43.216Z,11.70
2019-03-26T20:54:12.721Z,11.87
2019-03-26T20:56:42.162Z,11.33
2019-03-26T20:59:11.733Z,15.43
2019-03-26T21:01:41.170Z,8.90
2019-03-26T21:04:10.621Z,11.90
2019-03-26T21:06:40.054Z,9.40
2019-03-26T21:09:09.495Z,11.47
2019-03-26T21:11:38.929Z,9.07
2019-03-26T21:14:08.379Z,12.03
2019-03-26T21:16:37.811Z,8.43
2019-03-26T21:19:07.264Z,11.50
2019-03-26T21:21:36.699Z,9.30
2019-03-26T21:24:06.479Z,10.77
2019-03-26T21:26:35.912Z,10.07
2019-03-26T21:29:05.358Z,9.27
2019-03-26T21:31:34.796Z,10.53
2019-03-26T21:34:04.222Z,6.50
2019-03-26T21:36:33.648Z,11.20
2019-03-26T21:39:04.762Z,11.03
2019-03-26T21:41:34.202Z,12.00
2019-03-26T21:44:04.845Z,13.07
2019-03-26T21:46:34.355Z,10.77
2019-03-26T21:49:03.804Z,11.60
2019-03-26T21:51:33.237Z,9.00
2019-03-26T21:54:02.681Z,12.10
2019-03-26T21:56:32.109Z,10.07
2019-03-26T21:59:01.547Z,9.57
2019-03-26T22:01:30.980Z,11.90
2019-03-26T22:04:00.420Z,13.07
2019-03-26T22:06:29.920Z,13.30
2019-03-26T22:08:59.366Z,11.30
2019-03-26T22:11:30.438Z,12.70
2019-03-26T22:13:59.887Z,11.90
2019-03-26T22:16:29.318Z,11.87
2019-03-26T22:18:58.758Z,10.70
2019-03-26T22:21:28.192Z,10.37
2019-03-26T22:23:57.644Z,12.70
2019-03-26T22:26:27.070Z,11.37
2019-03-26T22:28:56.528Z,11.93
2019-03-26T22:31:25.980Z,10.00
2019-03-26T22:33:55.397Z,12.10
2019-03-26T22:36:24.849Z,10.90
2019-03-26T22:38:54.274Z,13.47
2019-03-26T22:41:23.708Z,14.53
2019-03-26T22:43:55.067Z,13.90
2019-03-26T22:46:24.309Z,11.27
2019-03-26T22:48:53.753Z,12.93
2019-03-26T22:51:23.184Z,10.27
2019-03-26T22:53:52.635Z,9.73
2019-03-26T22:56:22.081Z,10.10
2019-03-26T22:58:51.510Z,9.50
2019-03-26T23:01:21.474Z,8.30
2019-03-26T23:03:51.253Z,9.43
2019-03-26T23:06:20.681Z,14.10
2019-03-26T23:08:50.116Z,9.37
2019-03-26T23:11:19.884Z,11.17
2019-03-26T23:13:49.586Z,10.33
2019-03-26T23:16:19.024Z,10.57
2019-03-26T23:18:48.464Z,12.10
2019-03-26T23:21:19.884Z,10.77
2019-03-26T23:23:49.068Z,10.07
2019-03-26T23:26:18.503Z,8.73
2019-03-26T23:28:47.942Z,12.97
2019-03-26T23:31:17.368Z,9.87
2019-03-26T23:33:46.820Z,11.23
2019-03-26T23:36:16.255Z,9.23
2019-03-26T23:38:45.702Z,9.10
2019-03-26T23:41:15.211Z,11.50
2019-03-26T23:43:44.647Z,9.70
2019-03-26T23:46:14.084Z,15.10
2019-03-26T23:48:43.513Z,10.27
2019-03-26T23:51:12.964Z,13.30
2019-03-26T23:53:42.394Z,11.03
2019-03-26T23:56:11.840Z,12.47
2019-03-26T23:58:41.268Z,9.87
